createdAt,value
2023-05-18T00:06:17.727Z,10.70
2023-05-18T00:16:43.761Z,10.64
2023-05-18T00:27:10.076Z,10.54
2023-05-18T00:37:35.958Z,10.47
2023-05-18T00:48:01.987Z,10.42
2023-05-18T00:58:28.112Z,10.34
2023-05-18T01:08:54.482Z,10.24
2023-05-18T01:19:44.978Z,10.17
2023-05-18T01:30:12.998Z,10.12
2023-05-18T01:40:45.570Z,9.99
2023-05-18T01:51:15.117Z,9.79
2023-05-18T02:01:40.997Z,9.65
2023-05-18T02:12:08.261Z,9.57
2023-05-18T02:22:34.200Z,9.49
2023-05-18T02:33:00.142Z,9.49
2023-05-18T02:43:26.172Z,9.47
2023-05-18T02:53:53.157Z,9.43
2023-05-18T03:04:20.090Z,9.43
2023-05-18T03:14:46.103Z,9.39
2023-05-18T03:25:12.265Z,9.37
2023-05-18T03:35:37.919Z,9.27
2023-05-18T03:46:03.365Z,9.21
2023-05-18T03:56:31.536Z,9.21
2023-05-18T04:06:57.266Z,9.21
2023-05-18T04:17:23.737Z,9.24
2023-05-18T04:27:51.661Z,9.27
2023-05-18T04:38:17.728Z,9.22
2023-05-18T04:48:43.635Z,9.17
2023-05-18T04:59:09.559Z,9.17
2023-05-18T05:09:35.374Z,9.19
2023-05-18T05:20:01.453Z,9.17
2023-05-18T05:30:27.402Z,9.15
2023-05-18T05:40:53.433Z,9.16
2023-05-18T05:51:19.471Z,9.22
2023-05-18T06:01:45.625Z,9.22
2023-05-18T06:12:12.494Z,9.29
2023-05-18T06:22:38.344Z,9.44
2023-05-18T06:33:04.763Z,9.52
2023-05-18T06:43:30.656Z,9.57
2023-05-18T06:53:56.519Z,9.57
2023-05-18T07:04:22.508Z,9.54
2023-05-18T07:14:48.198Z,9.71
2023-05-18T07:25:14.172Z,9.82
2023-05-18T07:35:40.447Z,9.96
2023-05-18T07:46:06.512Z,10.17
2023-05-18T07:56:32.416Z,10.26
2023-05-18T08:07:00.733Z,10.29
2023-05-18T08:17:26.568Z,10.39
2023-05-18T08:27:53.081Z,10.48
2023-05-18T08:38:19.392Z,10.72
2023-05-18T08:48:48.184Z,10.92
2023-05-18T08:59:15.877Z,10.98
2023-05-18T09:09:44.401Z,11.10
2023-05-18T09:20:12.318Z,11.10
2023-05-18T09:30:45.089Z,10.91
2023-05-18T09:41:15.258Z,10.88
2023-05-18T09:51:42.055Z,10.97
2023-05-18T10:02:09.176Z,10.93
2023-05-18T10:12:35.249Z,11.00
2023-05-18T10:23:06.477Z,11.10
2023-05-18T10:33:34.859Z,11.05
2023-05-18T10:44:04.042Z,10.99
2023-05-18T10:54:31.317Z,11.07
2023-05-18T11:04:57.469Z,11.20
2023-05-18T11:15:43.061Z,11.20
2023-05-18T11:26:18.670Z,11.13
2023-05-18T11:36:56.285Z,11.11
2023-05-18T11:47:34.605Z,11.18
2023-05-18T11:58:00.517Z,11.15
2023-05-18T12:08:29.692Z,11.04
2023-05-18T12:18:55.596Z,11.06
2023-05-18T12:29:23.978Z,11.22
2023-05-18T12:39:54.967Z,11.41
2023-05-18T12:50:21.100Z,11.48
2023-05-18T13:00:49.434Z,11.61
2023-05-18T13:11:16.853Z,11.59
2023-05-18T13:21:43.595Z,11.75
2023-05-18T13:32:10.745Z,11.79
2023-05-18T13:42:36.749Z,11.70
2023-05-18T13:53:02.926Z,11.64
2023-05-18T14:03:29.421Z,11.66
2023-05-18T14:13:55.754Z,11.58
2023-05-18T14:24:21.793Z,11.65
2023-05-18T14:34:47.785Z,11.55
2023-05-18T14:45:14.453Z,11.39
2023-05-18T14:55:40.349Z,11.41
2023-05-18T15:06:06.696Z,11.22
2023-05-18T15:16:32.966Z,11.12
2023-05-18T15:26:58.678Z,11.01
2023-05-18T15:37:24.749Z,10.87
2023-05-18T15:47:50.712Z,10.71
2023-05-18T15:58:17.280Z,10.73
2023-05-18T16:08:42.888Z,10.65
2023-05-18T16:19:08.907Z,10.62
2023-05-18T16:29:34.463Z,10.70
2023-05-18T16:40:00.682Z,10.77
2023-05-18T16:50:27.957Z,10.89
2023-05-18T17:00:54.038Z,10.83
2023-05-18T17:11:20.008Z,10.65
2023-05-18T17:21:46.399Z,10.49
2023-05-18T17:32:12.078Z,10.32
2023-05-18T17:42:38.250Z,10.17
2023-05-18T17:53:05.048Z,10.09
2023-05-18T18:03:30.646Z,9.96
2023-05-18T18:13:57.181Z,9.98
2023-05-18T18:24:23.796Z,10.04
2023-05-18T18:34:49.183Z,10.27
2023-05-18T18:45:15.377Z,10.43
2023-05-18T18:55:41.685Z,10.49
2023-05-18T19:06:07.393Z,10.44
2023-05-18T19:16:34.202Z,10.20
2023-05-18T19:27:00.265Z,10.03
2023-05-18T19:37:26.284Z,10.04
2023-05-18T19:47:52.494Z,10.06
2023-05-18T19:58:18.291Z,9.94
2023-05-18T20:08:44.667Z,9.88
2023-05-18T20:19:12.067Z,9.95
2023-05-18T20:29:37.990Z,10.10
2023-05-18T20:40:09.039Z,10.18
2023-05-18T20:50:35.361Z,10.42
2023-05-18T21:01:07.371Z,10.49
2023-05-18T21:11:33.978Z,10.26
2023-05-18T21:21:59.828Z,10.09
2023-05-18T21:32:26.123Z,10.23
2023-05-18T21:42:52.038Z,10.34
2023-05-18T21:53:18.359Z,10.52
2023-05-18T22:03:43.905Z,10.36
2023-05-18T22:14:09.872Z,10.22
2023-05-18T22:24:36.146Z,10.22
2023-05-18T22:35:03.392Z,10.05
2023-05-18T22:45:29.109Z,9.91
2023-05-18T22:55:56.626Z,10.05
2023-05-18T23:06:23.764Z,10.09
2023-05-18T23:16:50.416Z,10.15
2023-05-18T23:27:16.470Z,10.02
2023-05-18T23:37:43.880Z,9.83
2023-05-18T23:48:12.330Z,9.71
2023-05-18T23:58:41.590Z,9.68
